Time;durP1;ratioP1;P1;durP2;ratioP2;P2;SDS_P1;SDS_P2;PMS_P1;PMS_P2;Temp;Humidity;BMP_temperature;BMP_pressure;BME280_temperature;BME280_humidity;BME280_pressure;Samples;Min_cycle;Max_cycle;Signal;HPM_P1;HPM_P2
2022/10/30 00:00:09;;;;;;;;;15.25;8.00;;;;;;;;5035665;28;51240;-56
2022/10/30 00:02:53;;;;;;;;;13.75;9.00;;;;;;;;5040354;28;51350;-56
2022/10/30 00:05:45;;;;;;;;;13.25;8.50;;;;;;;;5024939;28;51084;-56
2022/10/30 00:08:29;;;;;;;;;8.75;6.75;;;;;;;;5028406;28;51188;-57
2022/10/30 00:11:13;;;;;;;;;10.75;8.00;;;;;;;;5027037;28;51052;-55
2022/10/30 00:13:58;;;;;;;;;15.75;10.50;;;;;;;;5035447;28;51146;-54
2022/10/30 00:16:42;;;;;;;;;13.25;9.50;;;;;;;;5025386;28;51409;-56
2022/10/30 00:19:26;;;;;;;;;15.25;9.00;;;;;;;;5035514;28;51072;-55
2022/10/30 00:22:11;;;;;;;;;14.75;8.25;;;;;;;;5035024;28;51037;-56
2022/10/30 00:24:55;;;;;;;;;8.25;7.50;;;;;;;;5028963;28;51246;-57
2022/10/30 00:27:40;;;;;;;;;10.50;7.75;;;;;;;;5035469;28;51480;-56
2022/10/30 00:30:24;;;;;;;;;16.50;8.50;;;;;;;;5031610;28;51066;-56
2022/10/30 00:33:08;;;;;;;;;10.25;6.75;;;;;;;;5035059;28;51179;-54
2022/10/30 00:35:53;;;;;;;;;11.50;7.00;;;;;;;;5026866;28;51428;-57
2022/10/30 00:38:37;;;;;;;;;10.75;7.75;;;;;;;;5028890;28;51151;-54
2022/10/30 00:41:23;;;;;;;;;13.00;9.25;;;;;;;;5036300;28;51136;-57
2022/10/30 00:44:27;;;;;;;;;15.00;8.50;;;;;;;;5027023;28;51423;-57
2022/10/30 00:47:31;;;;;;;;;12.25;7.75;;;;;;;;5035713;28;52060;-56
2022/10/30 00:50:18;;;;;;;;;13.25;8.00;;;;;;;;5028025;28;51244;-57
2022/10/30 00:53:02;;;;;;;;;8.75;8.25;;;;;;;;5032873;28;51214;-56
2022/10/30 00:55:49;;;;;;;;;10.50;6.25;;;;;;;;5024971;28;51133;-57
2022/10/30 00:58:41;;;;;;;;;12.00;6.75;;;;;;;;5024860;28;51207;-55
2022/10/30 01:01:27;;;;;;;;;12.00;6.75;;;;;;;;5038074;28;51508;-57
2022/10/30 01:04:12;;;;;;;;;10.50;7.25;;;;;;;;5034765;28;51205;-56
2022/10/30 01:06:57;;;;;;;;;11.25;7.25;;;;;;;;5028184;28;51200;-55
2022/10/30 01:09:42;;;;;;;;;15.75;8.00;;;;;;;;5031241;28;51105;-54
2022/10/30 01:12:26;;;;;;;;;10.25;7.50;;;;;;;;5029376;28;51133;-55
2022/10/30 01:15:12;;;;;;;;;14.50;9.00;;;;;;;;5036534;28;51196;-56
2022/10/30 01:17:55;;;;;;;;;9.75;6.50;;;;;;;;5023584;28;51498;-57
2022/10/30 01:20:58;;;;;;;;;12.50;8.25;;;;;;;;5026043;28;51161;-56
2022/10/30 01:23:51;;;;;;;;;10.25;8.00;;;;;;;;5027230;28;51228;-57
2022/10/30 01:26:35;;;;;;;;;12.25;6.75;;;;;;;;5034961;28;51273;-57
2022/10/30 01:29:25;;;;;;;;;7.50;6.75;;;;;;;;5034797;28;51079;-57
2022/10/30 01:32:22;;;;;;;;;14.50;8.50;;;;;;;;5038605;28;51256;-57
2022/10/30 01:35:18;;;;;;;;;8.50;7.00;;;;;;;;5038797;28;51124;-53
2022/10/30 01:38:07;;;;;;;;;8.75;7.00;;;;;;;;5034903;28;51284;-56
2022/10/30 01:40:51;;;;;;;;;12.00;7.75;;;;;;;;5028856;28;51042;-57
2022/10/30 01:43:36;;;;;;;;;10.50;8.75;;;;;;;;5027465;28;51731;-56
2022/10/30 01:46:39;;;;;;;;;16.75;9.00;;;;;;;;5033796;28;51137;-57
2022/10/30 01:49:42;;;;;;;;;14.25;11.00;;;;;;;;5026110;28;51173;-56
2022/10/30 01:52:32;;;;;;;;;10.75;9.50;;;;;;;;5024209;28;51179;-56
2022/10/30 01:55:34;;;;;;;;;20.75;13.25;;;;;;;;5038069;28;51124;-57
2022/10/30 01:58:26;;;;;;;;;19.25;13.50;;;;;;;;5025143;28;51120;-57
2022/10/30 02:01:11;;;;;;;;;19.50;13.25;;;;;;;;5030827;28;51007;-55
2022/10/30 02:03:55;;;;;;;;;19.75;13.25;;;;;;;;5038567;28;51496;-54
2022/10/30 02:06:39;;;;;;;;;15.75;12.00;;;;;;;;5035851;28;51032;-56
2022/10/30 02:09:24;;;;;;;;;15.50;12.75;;;;;;;;5027394;28;51054;-57
2022/10/30 02:12:09;;;;;;;;;16.75;13.50;;;;;;;;5038694;28;51193;-56
2022/10/30 02:14:57;;;;;;;;;20.25;17.25;;;;;;;;5030819;28;51132;-56
2022/10/30 02:17:42;;;;;;;;;18.25;16.25;;;;;;;;5028813;28;51101;-54
2022/10/30 02:20:26;;;;;;;;;21.25;15.00;;;;;;;;5033015;28;51188;-58
2022/10/30 02:23:17;;;;;;;;;15.75;14.00;;;;;;;;5023758;28;51045;-55
2022/10/30 02:26:01;;;;;;;;;12.00;11.00;;;;;;;;5025059;28;51055;-54
2022/10/30 02:28:45;;;;;;;;;14.75;13.25;;;;;;;;5032766;28;51115;-55
2022/10/30 02:31:30;;;;;;;;;15.25;13.00;;;;;;;;5034383;28;51116;-56
2022/10/30 02:34:14;;;;;;;;;15.00;12.25;;;;;;;;5024723;28;51328;-57
2022/10/30 02:36:59;;;;;;;;;17.75;12.00;;;;;;;;5004228;28;51174;-57
2022/10/30 02:39:43;;;;;;;;;16.50;14.50;;;;;;;;5023267;28;51065;-54
2022/10/30 02:42:27;;;;;;;;;17.25;10.75;;;;;;;;5038177;28;51231;-57
2022/10/30 02:45:12;;;;;;;;;18.75;11.50;;;;;;;;5024743;28;51069;-57
2022/10/30 02:47:58;;;;;;;;;14.75;10.50;;;;;;;;5025070;28;51164;-56
2022/10/30 02:50:43;;;;;;;;;17.50;12.75;;;;;;;;5021941;28;51262;-56
2022/10/30 02:53:27;;;;;;;;;13.00;9.75;;;;;;;;5032199;28;51151;-57
2022/10/30 02:56:12;;;;;;;;;11.00;10.50;;;;;;;;5036680;28;51201;-56
2022/10/30 02:58:56;;;;;;;;;13.50;9.50;;;;;;;;5031517;28;51005;-52
2022/10/30 03:01:41;;;;;;;;;11.00;10.00;;;;;;;;5037792;28;51076;-55
2022/10/30 03:04:25;;;;;;;;;7.75;6.00;;;;;;;;5037308;28;51097;-57
2022/10/30 03:07:09;;;;;;;;;13.75;10.25;;;;;;;;5036688;28;51312;-56
2022/10/30 03:09:54;;;;;;;;;15.75;9.50;;;;;;;;5034053;28;51320;-56
2022/10/30 03:12:38;;;;;;;;;21.50;14.25;;;;;;;;5034470;28;51355;-56
2022/10/30 03:15:22;;;;;;;;;13.00;10.00;;;;;;;;5020107;28;50977;-56
2022/10/30 03:18:07;;;;;;;;;13.75;11.50;;;;;;;;5034593;28;51445;-57
2022/10/30 03:20:54;;;;;;;;;14.00;12.50;;;;;;;;5029193;28;51208;-54
2022/10/30 03:23:39;;;;;;;;;13.00;11.25;;;;;;;;5032641;28;51490;-57
2022/10/30 03:26:23;;;;;;;;;12.25;11.50;;;;;;;;5026620;28;51262;-53
2022/10/30 03:29:08;;;;;;;;;16.50;11.00;;;;;;;;5032587;28;51234;-56
2022/10/30 03:31:52;;;;;;;;;21.75;11.00;;;;;;;;5034488;28;51244;-56
2022/10/30 03:34:37;;;;;;;;;15.50;14.00;;;;;;;;5020896;28;51054;-55
2022/10/30 03:37:21;;;;;;;;;13.50;10.50;;;;;;;;5026143;28;51338;-57
2022/10/30 03:40:06;;;;;;;;;15.00;13.00;;;;;;;;5034540;28;51088;-57
2022/10/30 03:42:50;;;;;;;;;14.75;11.25;;;;;;;;5023066;28;51369;-57
2022/10/30 03:45:34;;;;;;;;;18.75;11.75;;;;;;;;5034755;28;51151;-55
2022/10/30 03:48:19;;;;;;;;;18.50;14.50;;;;;;;;5023549;28;51544;-54
2022/10/30 03:51:03;;;;;;;;;17.00;13.25;;;;;;;;5028634;28;51056;-57
2022/10/30 03:53:48;;;;;;;;;20.25;16.25;;;;;;;;5027340;28;51185;-57
2022/10/30 03:56:32;;;;;;;;;23.75;15.75;;;;;;;;5018348;28;51482;-54
2022/10/30 03:59:17;;;;;;;;;27.75;20.50;;;;;;;;5026194;28;51078;-55
2022/10/30 04:02:01;;;;;;;;;18.00;15.75;;;;;;;;5035592;28;51387;-57
2022/10/30 04:04:46;;;;;;;;;18.25;15.00;;;;;;;;5019535;28;51269;-56
2022/10/30 04:07:30;;;;;;;;;17.75;16.00;;;;;;;;5023579;28;51068;-56
2022/10/30 04:10:15;;;;;;;;;16.00;14.50;;;;;;;;5042183;28;51186;-55
2022/10/30 04:13:00;;;;;;;;;17.75;15.00;;;;;;;;5039107;28;51160;-57
2022/10/30 04:15:46;;;;;;;;;18.00;16.50;;;;;;;;5032656;28;51111;-54
2022/10/30 04:18:30;;;;;;;;;16.75;14.25;;;;;;;;5027747;28;51136;-56
2022/10/30 04:21:14;;;;;;;;;18.50;17.25;;;;;;;;5021912;28;51087;-56
2022/10/30 04:23:59;;;;;;;;;18.00;16.00;;;;;;;;5040181;28;51118;-54
2022/10/30 04:26:43;;;;;;;;;17.25;16.00;;;;;;;;5021604;28;51130;-57
2022/10/30 04:29:28;;;;;;;;;16.75;16.00;;;;;;;;5034684;28;51839;-54
2022/10/30 04:32:12;;;;;;;;;20.75;18.50;;;;;;;;5024785;28;51535;-56
2022/10/30 04:34:57;;;;;;;;;18.25;15.25;;;;;;;;5041610;28;51207;-57
2022/10/30 04:37:42;;;;;;;;;18.50;15.25;;;;;;;;5040567;28;51057;-56
2022/10/30 04:40:28;;;;;;;;;23.00;15.75;;;;;;;;5040806;28;51337;-55
2022/10/30 04:43:13;;;;;;;;;19.75;16.50;;;;;;;;5035032;28;51231;-56
2022/10/30 04:45:57;;;;;;;;;19.50;17.75;;;;;;;;5038173;28;51566;-55
2022/10/30 04:48:42;;;;;;;;;21.00;17.75;;;;;;;;5039067;28;51096;-55
2022/10/30 04:51:26;;;;;;;;;28.75;18.50;;;;;;;;5026760;28;51152;-56
2022/10/30 04:54:10;;;;;;;;;30.25;21.75;;;;;;;;5029611;28;50947;-56
2022/10/30 04:56:55;;;;;;;;;30.00;26.00;;;;;;;;5034435;28;51533;-54
2022/10/30 04:59:39;;;;;;;;;26.00;21.25;;;;;;;;5037195;28;51055;-56
2022/10/30 05:02:23;;;;;;;;;31.75;23.25;;;;;;;;5038908;28;51099;-56
2022/10/30 05:05:08;;;;;;;;;28.25;24.00;;;;;;;;5040867;28;51077;-56
2022/10/30 05:07:52;;;;;;;;;11.00;5.00;;;;;;;;5039202;28;51054;-57
2022/10/30 05:10:40;;;;;;;;;25.75;20.25;;;;;;;;5039635;28;51353;-55
2022/10/30 05:13:24;;;;;;;;;25.25;22.75;;;;;;;;5039217;28;51112;-56
2022/10/30 05:16:09;;;;;;;;;29.00;26.25;;;;;;;;5035771;28;51240;-55
2022/10/30 05:18:53;;;;;;;;;29.00;23.25;;;;;;;;5026684;28;51154;-56
2022/10/30 05:21:37;;;;;;;;;32.50;25.25;;;;;;;;5026958;28;51189;-57
2022/10/30 05:24:22;;;;;;;;;29.50;26.25;;;;;;;;5031002;28;51339;-57
2022/10/30 05:27:06;;;;;;;;;33.25;26.75;;;;;;;;5036605;28;51471;-57
2022/10/30 05:29:50;;;;;;;;;30.25;25.00;;;;;;;;5030716;28;51138;-55
2022/10/30 05:32:35;;;;;;;;;27.00;24.50;;;;;;;;5034487;28;51175;-57
2022/10/30 05:35:19;;;;;;;;;32.25;27.75;;;;;;;;5019903;28;51220;-55
2022/10/30 05:38:05;;;;;;;;;34.25;29.00;;;;;;;;5036276;28;51299;-57
2022/10/30 05:40:49;;;;;;;;;36.00;28.00;;;;;;;;5020771;28;51176;-54
2022/10/30 05:43:34;;;;;;;;;30.75;27.00;;;;;;;;5030595;28;51155;-56
2022/10/30 05:46:18;;;;;;;;;30.75;25.25;;;;;;;;5034157;28;51087;-57
2022/10/30 05:49:03;;;;;;;;;33.25;26.00;;;;;;;;5034156;28;51226;-57
2022/10/30 05:51:47;;;;;;;;;29.25;27.00;;;;;;;;5036397;28;52156;-56
2022/10/30 05:54:31;;;;;;;;;33.00;25.25;;;;;;;;5029132;28;51158;-56
2022/10/30 05:57:16;;;;;;;;;37.00;30.50;;;;;;;;5029537;28;51503;-57
2022/10/30 06:00:01;;;;;;;;;35.50;30.00;;;;;;;;5004967;28;51134;-56
2022/10/30 06:02:45;;;;;;;;;32.25;26.75;;;;;;;;5031928;28;51058;-55
2022/10/30 06:05:30;;;;;;;;;39.50;30.50;;;;;;;;5031386;28;51154;-58
2022/10/30 06:08:17;;;;;;;;;37.25;31.00;;;;;;;;5031366;28;51484;-57
2022/10/30 06:11:01;;;;;;;;;33.75;26.25;;;;;;;;5039321;28;51068;-55
2022/10/30 06:13:46;;;;;;;;;36.50;32.00;;;;;;;;5025184;28;51127;-57
2022/10/30 06:16:31;;;;;;;;;38.25;32.75;;;;;;;;5029961;28;51155;-56
2022/10/30 06:19:15;;;;;;;;;25.00;23.75;;;;;;;;5032493;28;51175;-56
2022/10/30 06:21:59;;;;;;;;;40.00;31.25;;;;;;;;5025236;28;51085;-57
2022/10/30 06:24:44;;;;;;;;;37.25;30.00;;;;;;;;5024083;28;51205;-57
2022/10/30 06:27:28;;;;;;;;;42.25;31.50;;;;;;;;5033374;28;51153;-55
2022/10/30 06:30:13;;;;;;;;;44.25;32.75;;;;;;;;5036864;28;51098;-57
2022/10/30 06:33:01;;;;;;;;;43.25;32.00;;;;;;;;5034136;28;51175;-57
2022/10/30 06:35:49;;;;;;;;;41.25;31.25;;;;;;;;5020238;28;51357;-58
2022/10/30 06:38:33;;;;;;;;;31.75;29.25;;;;;;;;5025432;28;51602;-56
2022/10/30 06:41:18;;;;;;;;;40.50;32.75;;;;;;;;5031409;28;51487;-55
2022/10/30 06:44:02;;;;;;;;;32.50;28.50;;;;;;;;5030691;28;51200;-57
2022/10/30 06:46:46;;;;;;;;;41.25;32.50;;;;;;;;5038418;28;51097;-57
2022/10/30 06:49:31;;;;;;;;;45.00;33.75;;;;;;;;5037538;28;51190;-57
2022/10/30 06:52:16;;;;;;;;;37.25;29.75;;;;;;;;5028812;28;51058;-57
2022/10/30 06:55:00;;;;;;;;;44.75;32.75;;;;;;;;5025548;28;51096;-56
2022/10/30 06:57:44;;;;;;;;;37.75;32.00;;;;;;;;5028852;28;51157;-57
2022/10/30 07:00:29;;;;;;;;;36.75;30.50;;;;;;;;5030808;28;51119;-54
2022/10/30 07:03:15;;;;;;;;;35.00;29.75;;;;;;;;5036493;28;51278;-57
2022/10/30 07:05:59;;;;;;;;;36.25;30.00;;;;;;;;5033282;28;51448;-57
2022/10/30 07:08:43;;;;;;;;;35.00;26.50;;;;;;;;5023929;28;51187;-56
2022/10/30 07:11:28;;;;;;;;;40.50;30.50;;;;;;;;5030691;28;51090;-56
2022/10/30 07:14:12;;;;;;;;;47.25;33.25;;;;;;;;5037581;28;51577;-57
2022/10/30 07:16:56;;;;;;;;;38.50;31.00;;;;;;;;5029413;28;51678;-56
2022/10/30 07:19:41;;;;;;;;;28.25;25.75;;;;;;;;5035698;28;51358;-54
2022/10/30 07:22:25;;;;;;;;;37.75;28.25;;;;;;;;5035010;28;51088;-56
2022/10/30 07:25:10;;;;;;;;;35.25;27.75;;;;;;;;5032664;28;51269;-55
2022/10/30 07:27:55;;;;;;;;;37.00;30.50;;;;;;;;5020937;28;51494;-57
2022/10/30 07:30:39;;;;;;;;;33.25;29.50;;;;;;;;5033428;28;51960;-56
2022/10/30 07:33:23;;;;;;;;;36.25;29.00;;;;;;;;5031004;28;51147;-57
2022/10/30 07:36:08;;;;;;;;;32.75;25.00;;;;;;;;5021788;28;51080;-55
2022/10/30 07:38:52;;;;;;;;;30.50;24.75;;;;;;;;5032394;28;51128;-57
2022/10/30 07:41:37;;;;;;;;;33.50;25.00;;;;;;;;5032701;28;51723;-55
2022/10/30 07:44:21;;;;;;;;;25.50;19.75;;;;;;;;5035827;28;51423;-57
2022/10/30 07:47:05;;;;;;;;;24.50;20.00;;;;;;;;5039061;28;51092;-55
2022/10/30 07:49:50;;;;;;;;;24.75;19.50;;;;;;;;5022295;28;51165;-56
2022/10/30 07:52:34;;;;;;;;;26.50;20.00;;;;;;;;5026364;28;51199;-57
2022/10/30 07:55:18;;;;;;;;;23.75;19.25;;;;;;;;5033534;28;51504;-56
2022/10/30 07:58:03;;;;;;;;;25.25;15.75;;;;;;;;5035425;28;51201;-55
2022/10/30 08:00:48;;;;;;;;;18.75;16.75;;;;;;;;5027248;28;51148;-56
2022/10/30 08:03:32;;;;;;;;;14.00;10.75;;;;;;;;5033394;28;51142;-54
2022/10/30 08:06:16;;;;;;;;;21.50;17.25;;;;;;;;5038700;28;51077;-56
2022/10/30 08:09:01;;;;;;;;;20.50;17.50;;;;;;;;5038945;28;51374;-56
2022/10/30 08:11:45;;;;;;;;;24.00;17.75;;;;;;;;5024703;28;51105;-57
2022/10/30 08:14:30;;;;;;;;;20.50;14.75;;;;;;;;5027402;28;51164;-57
2022/10/30 08:17:14;;;;;;;;;17.75;15.50;;;;;;;;5027094;28;51497;-56
2022/10/30 08:19:59;;;;;;;;;17.00;16.25;;;;;;;;5029143;28;51368;-55
2022/10/30 08:22:47;;;;;;;;;23.50;16.00;;;;;;;;5038771;28;51049;-57
2022/10/30 08:25:31;;;;;;;;;18.50;14.75;;;;;;;;5025927;28;51215;-55
2022/10/30 08:28:16;;;;;;;;;17.25;15.00;;;;;;;;5039347;28;51427;-57
2022/10/30 08:31:01;;;;;;;;;22.00;16.00;;;;;;;;5035463;28;51077;-56
2022/10/30 08:33:45;;;;;;;;;25.25;17.25;;;;;;;;5029094;28;51143;-57
2022/10/30 08:36:30;;;;;;;;;23.75;15.75;;;;;;;;5036010;28;50943;-55
2022/10/30 08:39:15;;;;;;;;;16.50;15.50;;;;;;;;5036105;28;51969;-56
2022/10/30 08:41:59;;;;;;;;;21.75;17.50;;;;;;;;5016811;28;51061;-57
2022/10/30 08:44:44;;;;;;;;;19.50;15.75;;;;;;;;5022906;28;51398;-56
2022/10/30 08:47:28;;;;;;;;;18.00;15.00;;;;;;;;5029468;28;51077;-56
2022/10/30 08:50:13;;;;;;;;;18.25;13.75;;;;;;;;5024667;28;51125;-57
2022/10/30 08:53:02;;;;;;;;;17.50;14.50;;;;;;;;5024035;28;51185;-57
2022/10/30 08:55:46;;;;;;;;;20.25;16.25;;;;;;;;5024204;28;51455;-56
2022/10/30 08:58:30;;;;;;;;;19.50;16.75;;;;;;;;5021152;28;51179;-56
2022/10/30 09:01:15;;;;;;;;;21.25;18.00;;;;;;;;5037572;28;51025;-57
2022/10/30 09:03:59;;;;;;;;;16.75;12.75;;;;;;;;5020662;28;51460;-55
2022/10/30 09:06:43;;;;;;;;;18.50;14.00;;;;;;;;5021346;28;51163;-56
2022/10/30 09:09:28;;;;;;;;;16.00;14.75;;;;;;;;5028591;28;51273;-56
2022/10/30 09:12:12;;;;;;;;;19.50;16.25;;;;;;;;5037780;28;51284;-53
2022/10/30 09:14:57;;;;;;;;;20.25;14.75;;;;;;;;5036398;28;50994;-55
2022/10/30 09:17:41;;;;;;;;;14.50;12.50;;;;;;;;5034984;28;51066;-55
2022/10/30 09:20:26;;;;;;;;;16.00;15.25;;;;;;;;5025756;28;51439;-56
2022/10/30 09:23:10;;;;;;;;;20.00;17.00;;;;;;;;5019944;28;51117;-56
2022/10/30 09:25:58;;;;;;;;;20.00;13.00;;;;;;;;5029375;28;51160;-55
2022/10/30 09:28:42;;;;;;;;;19.75;14.50;;;;;;;;5028274;28;51168;-57
2022/10/30 09:31:27;;;;;;;;;19.25;14.50;;;;;;;;5037750;28;51268;-57
2022/10/30 09:34:11;;;;;;;;;16.00;13.50;;;;;;;;5026857;28;51180;-56
2022/10/30 09:36:55;;;;;;;;;18.50;13.00;;;;;;;;5028876;28;51034;-54
2022/10/30 09:39:40;;;;;;;;;17.75;13.00;;;;;;;;5033969;28;51219;-56
2022/10/30 09:42:42;;;;;;;;;14.25;12.25;;;;;;;;5032933;28;51181;-57
2022/10/30 09:45:38;;;;;;;;;18.25;14.75;;;;;;;;5038866;28;51280;-56
2022/10/30 09:48:42;;;;;;;;;19.25;14.50;;;;;;;;5039778;28;51038;-57
2022/10/30 09:51:36;;;;;;;;;15.25;11.00;;;;;;;;5025788;28;51171;-57
2022/10/30 09:54:20;;;;;;;;;19.25;13.00;;;;;;;;5034608;28;51179;-57
2022/10/30 09:57:04;;;;;;;;;23.75;14.75;;;;;;;;5036571;28;51149;-57
2022/10/30 10:00:04;;;;;;;;;14.00;11.50;;;;;;;;5037057;28;51338;-57
2022/10/30 10:02:51;;;;;;;;;16.25;12.00;;;;;;;;5031200;28;51080;-56
2022/10/30 10:05:49;;;;;;;;;16.25;13.00;;;;;;;;5023244;28;51321;-56
2022/10/30 10:08:37;;;;;;;;;19.00;13.25;;;;;;;;5019094;28;51539;-56
2022/10/30 10:11:39;;;;;;;;;14.00;11.50;;;;;;;;5019735;28;51097;-57
2022/10/30 10:14:27;;;;;;;;;12.50;8.75;;;;;;;;5021692;28;51240;-57
2022/10/30 10:17:13;;;;;;;;;12.75;11.25;;;;;;;;5029730;28;51113;-56
2022/10/30 10:20:01;;;;;;;;;14.75;12.75;;;;;;;;5031766;28;51364;-56
2022/10/30 10:22:47;;;;;;;;;17.00;11.00;;;;;;;;5019589;28;51129;-57
2022/10/30 10:25:31;;;;;;;;;16.50;14.00;;;;;;;;5030247;28;51181;-55
2022/10/30 10:28:34;;;;;;;;;20.75;13.25;;;;;;;;5037043;28;51165;-57
2022/10/30 10:31:19;;;;;;;;;10.75;8.50;;;;;;;;5039830;28;51092;-57
2022/10/30 10:34:21;;;;;;;;;15.25;13.00;;;;;;;;5038659;28;51480;-57
2022/10/30 10:37:06;;;;;;;;;12.50;11.25;;;;;;;;5025752;28;51428;-53
2022/10/30 10:40:12;;;;;;;;;12.50;9.25;;;;;;;;5037747;28;51178;-57
2022/10/30 10:43:14;;;;;;;;;15.25;11.25;;;;;;;;5039319;28;51280;-56
2022/10/30 10:46:34;;;;;;;;;14.25;9.00;;;;;;;;5038927;28;51410;-56
2022/10/30 10:49:30;;;;;;;;;16.00;12.50;;;;;;;;4957752;28;51162;-54
2022/10/30 10:52:17;;;;;;;;;14.00;11.50;;;;;;;;5019982;28;51497;-57
2022/10/30 10:55:04;;;;;;;;;13.00;10.75;;;;;;;;5018816;28;51201;-55
2022/10/30 10:57:50;;;;;;;;;10.50;9.25;;;;;;;;5023183;28;51156;-56
2022/10/30 11:00:34;;;;;;;;;9.25;9.25;;;;;;;;5031307;28;51049;-56
2022/10/30 11:03:41;;;;;;;;;12.00;10.75;;;;;;;;5037294;28;51146;-56
2022/10/30 11:06:31;;;;;;;;;9.75;8.25;;;;;;;;5034071;28;51216;-47
2022/10/30 11:09:15;;;;;;;;;12.75;8.75;;;;;;;;5024513;28;51140;-51
2022/10/30 11:12:00;;;;;;;;;12.25;6.25;;;;;;;;5035059;28;51539;-51
2022/10/30 11:14:44;;;;;;;;;12.50;7.50;;;;;;;;5023686;28;51061;-51
2022/10/30 11:17:38;;;;;;;;;9.50;7.00;;;;;;;;5037665;28;51191;-53
2022/10/30 11:20:27;;;;;;;;;7.75;6.75;;;;;;;;5029208;28;51077;-51
2022/10/30 11:23:31;;;;;;;;;8.25;5.75;;;;;;;;5022949;28;51049;-52
2022/10/30 11:26:21;;;;;;;;;7.75;4.75;;;;;;;;5026912;28;51292;-51
2022/10/30 11:29:05;;;;;;;;;11.00;5.75;;;;;;;;5040284;28;51175;-50
2022/10/30 11:32:03;;;;;;;;;11.75;6.00;;;;;;;;5042612;28;51441;-46
2022/10/30 11:35:06;;;;;;;;;13.25;5.75;;;;;;;;5035757;28;51261;-47
2022/10/30 11:37:51;;;;;;;;;8.25;7.00;;;;;;;;5022947;28;51160;-45
2022/10/30 11:40:36;;;;;;;;;7.75;5.00;;;;;;;;5041018;28;51231;-46
2022/10/30 11:43:22;;;;;;;;;6.75;6.00;;;;;;;;5036341;28;51096;-52
2022/10/30 11:46:09;;;;;;;;;9.75;5.50;;;;;;;;5031687;28;51483;-54
2022/10/30 11:48:53;;;;;;;;;9.00;6.75;;;;;;;;5031740;28;51179;-51
2022/10/30 11:51:39;;;;;;;;;16.25;7.50;;;;;;;;5023065;28;51144;-47
2022/10/30 11:54:23;;;;;;;;;7.75;6.00;;;;;;;;5022455;28;51108;-49
2022/10/30 11:57:22;;;;;;;;;13.75;7.25;;;;;;;;5021719;28;51371;-51
2022/10/30 12:00:12;;;;;;;;;14.00;10.50;;;;;;;;5032550;28;51184;-48
2022/10/30 12:03:00;;;;;;;;;13.75;5.25;;;;;;;;5038136;28;51453;-50
2022/10/30 12:05:44;;;;;;;;;10.00;4.75;;;;;;;;5034820;28;51189;-53
2022/10/30 12:08:29;;;;;;;;;12.50;7.50;;;;;;;;5031457;28;51285;-49
2022/10/30 12:11:13;;;;;;;;;12.50;8.75;;;;;;;;5028239;28;51053;-48
2022/10/30 12:13:58;;;;;;;;;9.00;8.00;;;;;;;;5026256;28;51328;-49
2022/10/30 12:16:47;;;;;;;;;16.75;10.25;;;;;;;;5041326;28;51163;-45
2022/10/30 12:19:32;;;;;;;;;11.00;8.25;;;;;;;;5026580;28;51134;-49
2022/10/30 12:22:33;;;;;;;;;6.25;5.00;;;;;;;;5040508;28;51146;-50
2022/10/30 12:25:20;;;;;;;;;6.50;6.50;;;;;;;;5038995;28;51274;-48
2022/10/30 12:28:14;;;;;;;;;8.25;6.50;;;;;;;;5020925;28;51442;-49
2022/10/30 12:31:04;;;;;;;;;10.00;6.25;;;;;;;;5036358;28;51222;-52
2022/10/30 12:33:52;;;;;;;;;6.50;6.25;;;;;;;;5023833;28;51136;-50
2022/10/30 12:36:42;;;;;;;;;11.00;4.75;;;;;;;;5027429;28;51462;-49
2022/10/30 12:39:43;;;;;;;;;11.00;5.75;;;;;;;;5041216;28;51501;-50
2022/10/30 12:42:27;;;;;;;;;10.50;5.25;;;;;;;;5025657;28;51174;-47
2022/10/30 12:45:18;;;;;;;;;10.75;6.75;;;;;;;;5040811;28;51225;-47
2022/10/30 12:48:09;;;;;;;;;12.00;9.25;;;;;;;;5037588;28;51128;-53
2022/10/30 12:51:12;;;;;;;;;11.00;9.00;;;;;;;;5021086;28;51089;-50
2022/10/30 12:54:01;;;;;;;;;9.75;5.50;;;;;;;;5037632;28;51182;-52
2022/10/30 12:56:48;;;;;;;;;12.50;8.50;;;;;;;;5036062;28;51173;-56
2022/10/30 12:59:42;;;;;;;;;9.00;9.00;;;;;;;;5040712;28;51422;-55
2022/10/30 13:02:41;;;;;;;;;9.75;6.00;;;;;;;;5034983;28;51194;-51
2022/10/30 13:05:41;;;;;;;;;8.50;5.50;;;;;;;;5024762;28;51026;-53
2022/10/30 13:08:29;;;;;;;;;10.75;5.75;;;;;;;;5023606;28;51425;-50
2022/10/30 13:11:34;;;;;;;;;11.75;5.50;;;;;;;;5020519;28;51199;-51
2022/10/30 13:14:21;;;;;;;;;7.50;4.75;;;;;;;;4991750;28;51149;-49
2022/10/30 13:17:10;;;;;;;;;7.75;5.50;;;;;;;;5040479;28;51080;-49
2022/10/30 13:19:54;;;;;;;;;9.00;6.00;;;;;;;;5030109;28;51515;-54
2022/10/30 13:22:44;;;;;;;;;10.75;4.50;;;;;;;;5038107;28;51286;-49
2022/10/30 13:25:38;;;;;;;;;11.25;7.75;;;;;;;;5023895;28;51164;-53
2022/10/30 13:28:26;;;;;;;;;15.50;7.00;;;;;;;;5020199;28;51092;-50
2022/10/30 13:31:25;;;;;;;;;8.50;7.00;;;;;;;;5027446;28;51068;-51
2022/10/30 13:34:16;;;;;;;;;9.75;5.25;;;;;;;;5038653;28;51187;-49
2022/10/30 13:37:03;;;;;;;;;11.75;6.00;;;;;;;;5028414;28;51535;-51
2022/10/30 13:40:05;;;;;;;;;5.75;4.50;;;;;;;;5035277;28;51203;-52
2022/10/30 13:42:52;;;;;;;;;9.75;6.25;;;;;;;;5037050;28;51111;-51
2022/10/30 13:45:36;;;;;;;;;9.50;5.50;;;;;;;;5039741;28;51403;-50
2022/10/30 13:48:28;;;;;;;;;11.25;7.00;;;;;;;;5029383;28;51168;-52
2022/10/30 13:51:27;;;;;;;;;7.25;4.50;;;;;;;;5031456;28;51440;-50
2022/10/30 13:54:22;;;;;;;;;7.25;6.00;;;;;;;;5019423;28;51269;-53
2022/10/30 13:57:19;;;;;;;;;8.25;5.00;;;;;;;;5017607;28;51029;-50
2022/10/30 14:00:05;;;;;;;;;9.75;7.00;;;;;;;;5029284;28;51200;-49
2022/10/30 14:02:49;;;;;;;;;7.00;5.50;;;;;;;;5026367;28;51101;-53
2022/10/30 14:05:46;;;;;;;;;9.50;7.25;;;;;;;;5039527;28;51094;-53
2022/10/30 14:08:49;;;;;;;;;5.25;5.25;;;;;;;;5039928;28;50943;-49
2022/10/30 14:11:33;;;;;;;;;7.50;3.75;;;;;;;;5024575;28;51365;-48
2022/10/30 14:14:29;;;;;;;;;7.25;5.50;;;;;;;;5024161;28;51081;-51
2022/10/30 14:17:14;;;;;;;;;9.50;7.00;;;;;;;;5027484;28;51183;-54
2022/10/30 14:20:05;;;;;;;;;7.75;5.75;;;;;;;;5019256;28;51061;-50
2022/10/30 14:23:05;;;;;;;;;6.75;5.25;;;;;;;;5036577;28;51460;-52
2022/10/30 14:26:05;;;;;;;;;8.00;6.25;;;;;;;;5018655;28;51322;-50
2022/10/30 14:28:50;;;;;;;;;10.50;6.00;;;;;;;;5035518;28;51348;-51
2022/10/30 14:31:35;;;;;;;;;6.25;6.25;;;;;;;;5034248;28;51029;-51
2022/10/30 14:34:39;;;;;;;;;7.25;4.25;;;;;;;;5025481;28;51361;-53
2022/10/30 14:37:24;;;;;;;;;9.00;6.25;;;;;;;;5024530;28;51085;-56
2022/10/30 14:40:33;;;;;;;;;11.75;9.00;;;;;;;;5021011;28;51197;-51
2022/10/30 14:43:36;;;;;;;;;11.50;8.50;;;;;;;;5028843;28;51465;-56
2022/10/30 14:46:31;;;;;;;;;10.50;5.75;;;;;;;;5037747;28;51144;-55
2022/10/30 14:49:33;;;;;;;;;7.00;7.00;;;;;;;;5039009;28;51167;-54
2022/10/30 14:52:39;;;;;;;;;12.00;5.00;;;;;;;;5023815;28;51070;-51
2022/10/30 14:55:27;;;;;;;;;9.50;6.75;;;;;;;;5036543;28;51389;-48
2022/10/30 14:58:16;;;;;;;;;7.00;4.25;;;;;;;;5022727;28;51037;-48
2022/10/30 15:01:03;;;;;;;;;13.00;7.25;;;;;;;;5027754;28;51155;-52
2022/10/30 15:04:02;;;;;;;;;9.75;5.75;;;;;;;;5033688;28;51535;-52
2022/10/30 15:06:53;;;;;;;;;13.25;6.25;;;;;;;;5032805;28;51136;-52
2022/10/30 15:09:52;;;;;;;;;13.00;6.00;;;;;;;;5030294;28;51102;-51
2022/10/30 15:12:56;;;;;;;;;15.75;10.25;;;;;;;;5031195;28;51362;-53
2022/10/30 15:15:40;;;;;;;;;9.50;6.25;;;;;;;;5028115;28;51481;-48
2022/10/30 15:18:25;;;;;;;;;9.00;5.75;;;;;;;;5028624;28;51254;-48
2022/10/30 15:21:17;;;;;;;;;11.75;6.25;;;;;;;;5029903;28;51510;-53
2022/10/30 15:24:01;;;;;;;;;6.00;6.00;;;;;;;;5027147;28;51135;-53
2022/10/30 15:26:57;;;;;;;;;8.50;6.75;;;;;;;;5020628;28;51202;-54
2022/10/30 15:29:43;;;;;;;;;8.75;4.50;;;;;;;;5017982;28;51054;-51
2022/10/30 15:32:28;;;;;;;;;7.50;5.25;;;;;;;;5018002;28;51122;-48
2022/10/30 15:35:15;;;;;;;;;13.00;7.50;;;;;;;;5022440;28;51417;-48
2022/10/30 15:37:59;;;;;;;;;11.75;8.50;;;;;;;;5018278;28;51050;-52
2022/10/30 15:40:44;;;;;;;;;11.25;7.00;;;;;;;;5017798;28;51466;-52
2022/10/30 15:43:31;;;;;;;;;10.00;6.75;;;;;;;;5032893;28;51390;-53
2022/10/30 15:46:15;;;;;;;;;5.50;3.00;;;;;;;;5036366;28;51318;-50
2022/10/30 15:48:59;;;;;;;;;13.50;7.75;;;;;;;;5019704;28;51199;-51
2022/10/30 15:51:45;;;;;;;;;6.00;5.00;;;;;;;;5025430;28;51407;-53
2022/10/30 15:54:31;;;;;;;;;8.00;6.25;;;;;;;;5009011;28;51099;-55
2022/10/30 15:57:18;;;;;;;;;8.25;6.00;;;;;;;;5024416;28;51046;-53
2022/10/30 16:00:07;;;;;;;;;10.50;4.25;;;;;;;;5032127;28;51366;-51
2022/10/30 16:03:03;;;;;;;;;8.75;6.25;;;;;;;;5032185;28;53085;-51
2022/10/30 16:05:48;;;;;;;;;8.50;6.25;;;;;;;;5024634;28;51559;-53
2022/10/30 16:08:41;;;;;;;;;10.25;5.25;;;;;;;;5035205;28;51085;-53
2022/10/30 16:11:25;;;;;;;;;6.25;5.25;;;;;;;;5039892;28;51386;-47
2022/10/30 16:14:13;;;;;;;;;14.50;7.50;;;;;;;;5040671;28;51127;-55
2022/10/30 16:17:01;;;;;;;;;6.75;6.75;;;;;;;;5037081;28;51259;-53
2022/10/30 16:19:48;;;;;;;;;13.50;7.00;;;;;;;;5022903;28;51384;-51
2022/10/30 16:22:34;;;;;;;;;12.00;7.25;;;;;;;;5021685;28;51150;-53
2022/10/30 16:25:20;;;;;;;;;6.75;6.25;;;;;;;;5037566;28;51110;-53